createdAt,value
2017-02-11T00:00:08.535Z,30.4
2017-02-11T00:02:05.292Z,30.4
2017-02-11T00:04:05.008Z,30.3
2017-02-11T00:06:05.823Z,30.3
2017-02-11T00:08:05.541Z,30.3
2017-02-11T00:10:07.854Z,30.3
2017-02-11T00:12:05.749Z,30.3
2017-02-11T00:14:05.493Z,30.2
2017-02-11T00:16:08.082Z,30.2
2017-02-11T00:18:09.361Z,30.2
2017-02-11T00:20:12.673Z,30.2
2017-02-11T00:22:05.379Z,30.2
2017-02-11T00:24:05.424Z,30.1
2017-02-11T00:26:05.129Z,30.1
2017-02-11T00:28:05.852Z,30.1
2017-02-11T00:30:05.888Z,30.1
2017-02-11T00:32:05.772Z,30.1
2017-02-11T00:34:05.590Z,30.1
2017-02-11T00:36:05.635Z,30
2017-02-11T00:38:05.616Z,30
2017-02-11T00:40:05.349Z,30
2017-02-11T00:42:07.849Z,30
2017-02-11T00:44:05.606Z,29.9
2017-02-11T00:46:05.301Z,29.9
2017-02-11T00:48:11.492Z,29.9
2017-02-11T00:50:05.196Z,29.9
2017-02-11T00:52:05.921Z,29.9
2017-02-11T00:54:08.791Z,29.9
2017-02-11T00:56:05.624Z,29.9
2017-02-11T00:58:05.892Z,30
2017-02-11T01:00:10.502Z,29.9
2017-02-11T01:02:05.210Z,29.9
2017-02-11T01:04:06.085Z,29.9
2017-02-11T01:06:05.614Z,29.9
2017-02-11T01:08:05.352Z,29.9
2017-02-11T01:10:07.567Z,29.9
2017-02-11T01:12:05.528Z,29.9
2017-02-11T01:14:05.323Z,29.9
2017-02-11T01:16:05.179Z,29.9
2017-02-11T01:18:05.237Z,29.9
2017-02-11T01:20:05.550Z,29.8
2017-02-11T01:22:05.298Z,29.8
2017-02-11T01:24:08.869Z,29.8
2017-02-11T01:26:05.599Z,29.9
2017-02-11T01:28:05.300Z,29.8
2017-02-11T01:30:06.164Z,29.8
2017-02-11T01:32:05.084Z,29.8
2017-02-11T01:34:08.316Z,29.8
2017-02-11T01:36:05.339Z,29.6
2017-02-11T01:38:05.082Z,29.8
2017-02-11T01:40:05.334Z,29.8
2017-02-11T01:42:05.338Z,29.8
2017-02-11T01:44:10.108Z,29.8
2017-02-11T01:46:05.845Z,29.8
2017-02-11T01:48:08.076Z,29.8
2017-02-11T01:50:05.755Z,29.8
2017-02-11T01:52:05.851Z,29.8
2017-02-11T01:54:05.727Z,29.8
2017-02-11T01:56:07.969Z,29.7
2017-02-11T01:58:05.693Z,29.7
2017-02-11T02:00:05.680Z,29.7
2017-02-11T02:02:07.933Z,29.5
2017-02-11T02:04:08.191Z,29.6
2017-02-11T02:06:06.202Z,29.7
2017-02-11T02:08:06.245Z,29.6
2017-02-11T02:10:05.954Z,29.5
2017-02-11T02:12:06.088Z,29.5
2017-02-11T02:14:05.791Z,29.5
2017-02-11T02:16:05.033Z,29.5
2017-02-11T02:18:13.831Z,29.7
2017-02-11T02:20:05.590Z,29.5
2017-02-11T02:22:05.865Z,29.5
2017-02-11T02:24:05.937Z,29.5
2017-02-11T02:26:08.207Z,29.5
2017-02-11T02:28:05.917Z,29.5
2017-02-11T02:30:05.852Z,29.5
2017-02-11T02:32:05.562Z,29.5
2017-02-11T02:34:05.820Z,29.5
2017-02-11T02:36:08.144Z,29.5
2017-02-11T02:38:05.858Z,29.5
2017-02-11T02:40:05.728Z,29.5
2017-02-11T02:42:05.780Z,29.5
2017-02-11T02:44:05.571Z,29.5
2017-02-11T02:46:05.281Z,29.5
2017-02-11T02:48:06.280Z,29.5
2017-02-11T02:50:05.976Z,29.5
2017-02-11T02:52:05.239Z,29.5
2017-02-11T02:54:06.261Z,29.4
2017-02-11T02:56:10.906Z,29.4
2017-02-11T02:58:05.628Z,29.4
2017-02-11T03:00:05.727Z,29.4
2017-02-11T03:02:05.429Z,29.4
2017-02-11T03:04:05.197Z,29.4
2017-02-11T03:06:08.001Z,29.4
2017-02-11T03:08:05.797Z,29.4
2017-02-11T03:10:05.569Z,29.4
2017-02-11T03:12:05.649Z,29.4
2017-02-11T03:14:05.399Z,29.4
2017-02-11T03:16:05.720Z,29.3
2017-02-11T03:18:05.939Z,29.4
2017-02-11T03:20:08.155Z,29.4
2017-02-11T03:22:05.802Z,29.3
2017-02-11T03:24:05.675Z,29.3
2017-02-11T03:26:05.425Z,29.3
2017-02-11T03:28:05.495Z,29.3
2017-02-11T03:30:06.099Z,29.3
2017-02-11T03:32:05.810Z,29.3
2017-02-11T03:34:05.661Z,29.3
2017-02-11T03:36:05.775Z,29.3
2017-02-11T03:38:05.523Z,29.3
2017-02-11T03:40:05.281Z,29.3
2017-02-11T03:42:06.316Z,29.3
2017-02-11T03:44:05.182Z,29.3
2017-02-11T03:46:10.979Z,29.2
2017-02-11T03:48:08.492Z,29.2
2017-02-11T03:50:05.215Z,29.2
2017-02-11T03:52:05.913Z,29.2
2017-02-11T03:54:05.986Z,29.2
2017-02-11T03:56:05.719Z,29.2
2017-02-11T03:58:05.532Z,29.2
2017-02-11T04:00:08.122Z,29.2
2017-02-11T04:02:05.844Z,29.2
2017-02-11T04:04:08.187Z,29.2
2017-02-11T04:06:11.293Z,29.2
2017-02-11T04:08:05.986Z,29.2
2017-02-11T04:10:05.711Z,29.2
2017-02-11T04:12:06.206Z,29.2
2017-02-11T04:14:08.433Z,29.2
2017-02-11T04:16:07.756Z,29.2
2017-02-11T04:18:05.916Z,29.2
2017-02-11T04:20:05.635Z,29.2
2017-02-11T04:22:05.376Z,29.2
2017-02-11T04:24:05.399Z,29.2
2017-02-11T04:26:05.073Z,29.1
2017-02-11T04:28:05.742Z,29.1
2017-02-11T04:30:08.241Z,29.1
2017-02-11T04:32:06.258Z,29.1
2017-02-11T04:34:05.919Z,29.1
2017-02-11T04:36:05.486Z,29.1
2017-02-11T04:38:05.286Z,29.1
2017-02-11T04:40:05.975Z,28.9
2017-02-11T04:42:08.607Z,28.9
2017-02-11T04:44:05.331Z,28.9
2017-02-11T04:46:05.057Z,29.1
2017-02-11T04:48:08.593Z,29
2017-02-11T04:50:05.874Z,28.9
2017-02-11T04:52:08.090Z,28.9
2017-02-11T04:54:08.704Z,28.9
2017-02-11T04:56:05.399Z,29
2017-02-11T04:58:05.191Z,29.1
2017-02-11T05:00:06.304Z,28.9
2017-02-11T05:02:05.077Z,29
2017-02-11T05:04:05.507Z,28.8
2017-02-11T05:06:05.834Z,28.8
2017-02-11T05:08:05.557Z,28.8
2017-02-11T05:10:07.854Z,28.8
2017-02-11T05:12:05.956Z,28.9
2017-02-11T05:14:05.638Z,28.8
2017-02-11T05:16:05.909Z,28.8
2017-02-11T05:18:05.907Z,28.8
2017-02-11T05:20:08.229Z,28.8
2017-02-11T05:22:05.921Z,28.8
2017-02-11T05:24:05.975Z,28.8
2017-02-11T05:26:05.526Z,28.8
2017-02-11T05:28:07.773Z,28.8
2017-02-11T05:30:05.874Z,28.8
2017-02-11T05:32:05.608Z,28.8
2017-02-11T05:34:05.344Z,28.8
2017-02-11T05:36:05.430Z,28.8
2017-02-11T05:38:05.237Z,28.8
2017-02-11T05:40:13.572Z,28.8
2017-02-11T05:42:05.407Z,28.8
2017-02-11T05:44:05.104Z,28.7
2017-02-11T05:46:05.901Z,28.8
2017-02-11T05:48:05.877Z,28.8
2017-02-11T05:50:05.640Z,28.8
2017-02-11T05:52:05.488Z,28.7
2017-02-11T05:54:06.052Z,28.7
2017-02-11T05:56:05.750Z,28.8
2017-02-11T05:58:05.467Z,28.7
2017-02-11T06:00:05.505Z,28.7
2017-02-11T06:02:05.218Z,28.7
2017-02-11T06:04:05.895Z,28.7
2017-02-11T06:06:05.398Z,28.7
2017-02-11T06:08:05.278Z,28.7
2017-02-11T06:10:05.539Z,28.7
2017-02-11T06:12:05.531Z,28.7
2017-02-11T06:14:05.291Z,29.1
2017-02-11T06:16:04.989Z,28.7
2017-02-11T06:18:05.646Z,28.7
2017-02-11T06:20:07.893Z,28.7
2017-02-11T06:22:05.669Z,28.7
2017-02-11T06:24:05.766Z,28.7
2017-02-11T06:26:05.530Z,28.7
2017-02-11T06:28:05.197Z,28.6
2017-02-11T06:30:08.720Z,28.7
2017-02-11T06:32:08.012Z,28.6
2017-02-11T06:34:08.326Z,28.6
2017-02-11T06:36:05.200Z,28.6
2017-02-11T06:38:05.908Z,28.6
2017-02-11T06:40:05.775Z,28.6
2017-02-11T06:42:05.148Z,28.6
2017-02-11T06:44:05.867Z,28.6
2017-02-11T06:46:05.071Z,28.6
2017-02-11T06:48:08.598Z,28.6
2017-02-11T06:50:07.885Z,28.6
2017-02-11T06:52:08.133Z,28.6
2017-02-11T06:54:08.764Z,28.6
2017-02-11T06:56:05.802Z,28.6
2017-02-11T06:58:05.552Z,28.6
2017-02-11T07:00:05.356Z,28.4
2017-02-11T07:02:05.104Z,28.6
2017-02-11T07:04:05.791Z,28.6
2017-02-11T07:06:05.843Z,28.6
2017-02-11T07:08:05.570Z,28.6
2017-02-11T07:10:05.857Z,28.6
2017-02-11T07:12:06.016Z,28.6
2017-02-11T07:14:05.826Z,28.6
2017-02-11T07:16:10.680Z,28.6
2017-02-11T07:18:05.954Z,28.4
2017-02-11T07:20:05.817Z,28.6
2017-02-11T07:22:05.726Z,28.6
2017-02-11T07:24:06.293Z,28.7
2017-02-11T07:26:05.981Z,28.7
2017-02-11T07:28:08.551Z,28.7
2017-02-11T07:30:05.408Z,28.7
2017-02-11T07:32:07.600Z,28.7
2017-02-11T07:34:05.420Z,28.7
2017-02-11T07:36:06.355Z,28.7
2017-02-11T07:38:05.077Z,28.7
2017-02-11T07:40:05.808Z,28.7
2017-02-11T07:42:05.576Z,28.7
2017-02-11T07:44:05.570Z,28.7
2017-02-11T07:46:05.275Z,28.7
2017-02-11T07:48:08.152Z,28.7
2017-02-11T07:50:05.358Z,28.7
2017-02-11T07:52:07.602Z,28.7
2017-02-11T07:54:10.597Z,28.7
2017-02-11T07:56:05.289Z,28.7
2017-02-11T07:58:07.565Z,28.7
2017-02-11T08:00:05.567Z,28.7
2017-02-11T08:02:05.298Z,28.7
2017-02-11T08:04:05.533Z,28.7
2017-02-11T08:06:08.635Z,28.9
2017-02-11T08:08:05.860Z,28.9
2017-02-11T08:10:05.097Z,28.9
2017-02-11T08:12:05.397Z,28.9
2017-02-11T08:14:05.143Z,28.9
2017-02-11T08:16:06.300Z,28.9
2017-02-11T08:18:10.586Z,28.9
2017-02-11T08:20:18.490Z,28.9
2017-02-11T08:22:05.208Z,28.9
2017-02-11T08:24:05.479Z,28.9
2017-02-11T08:26:05.874Z,28.9
2017-02-11T08:28:06.263Z,28.9
2017-02-11T08:30:06.159Z,28.9
2017-02-11T08:32:06.004Z,29
2017-02-11T08:34:05.849Z,29
2017-02-11T08:36:11.085Z,29.4
2017-02-11T08:38:05.359Z,29.2
2017-02-11T08:40:05.139Z,29.3
2017-02-11T08:42:05.679Z,29.2
2017-02-11T08:44:08.194Z,29.4
2017-02-11T08:46:07.717Z,29.4
2017-02-11T08:48:08.478Z,29.4
2017-02-11T08:50:06.490Z,29.4
2017-02-11T08:52:12.888Z,29.4
2017-02-11T08:54:12.281Z,29.6
2017-02-11T08:56:05.917Z,29.6
2017-02-11T08:58:05.459Z,29.8
2017-02-11T09:00:05.618Z,29.6
2017-02-11T09:02:07.833Z,29.4
2017-02-11T09:04:08.432Z,29.6
2017-02-11T09:06:08.334Z,29.5
2017-02-11T09:08:07.606Z,29.5
2017-02-11T09:10:06.593Z,29.5
2017-02-11T09:12:05.722Z,29.6
2017-02-11T09:14:05.201Z,30
2017-02-11T09:16:05.951Z,29.9
2017-02-11T09:18:08.657Z,30
2017-02-11T09:20:05.696Z,30.1
2017-02-11T09:22:05.400Z,30
2017-02-11T09:24:05.630Z,29.9
2017-02-11T09:26:05.429Z,30
2017-02-11T09:28:05.100Z,29.6
2017-02-11T09:30:06.126Z,29.7
2017-02-11T09:32:05.803Z,29.7
2017-02-11T09:34:05.499Z,29.9
2017-02-11T09:36:05.615Z,30
2017-02-11T09:38:05.325Z,30
2017-02-11T09:40:05.546Z,30
2017-02-11T09:42:05.790Z,29.8
2017-02-11T09:44:09.516Z,30
2017-02-11T09:46:05.825Z,30
2017-02-11T09:48:06.063Z,29.9
2017-02-11T09:50:08.449Z,30
2017-02-11T09:52:05.511Z,30
2017-02-11T09:54:05.636Z,29.8
2017-02-11T09:56:11.014Z,29.9
2017-02-11T09:58:08.074Z,30
2017-02-11T10:00:06.147Z,29.9
2017-02-11T10:02:06.585Z,29.8
2017-02-11T10:04:05.549Z,30
2017-02-11T10:06:05.538Z,29.9
2017-02-11T10:08:05.442Z,29.7
2017-02-11T10:10:07.741Z,29.7
2017-02-11T10:12:05.984Z,29.5
2017-02-11T10:14:05.721Z,29.5
2017-02-11T10:16:05.485Z,29.6
2017-02-11T10:18:05.737Z,29.5
2017-02-11T10:20:08.544Z,29.5
2017-02-11T10:22:05.846Z,29.5
2017-02-11T10:24:05.974Z,29.5
2017-02-11T10:26:05.672Z,29.6
2017-02-11T10:28:05.399Z,29.5
2017-02-11T10:30:08.262Z,29.5
2017-02-11T10:32:05.984Z,29.5
2017-02-11T10:34:05.656Z,29.5
2017-02-11T10:36:06.030Z,29.5
2017-02-11T10:38:05.304Z,29.5
2017-02-11T10:40:05.900Z,29.5
2017-02-11T10:42:05.720Z,29.5
2017-02-11T10:44:05.461Z,29.3
2017-02-11T10:46:07.696Z,29.4
2017-02-11T10:48:13.254Z,29.4
2017-02-11T10:50:05.243Z,29.4
2017-02-11T10:52:08.506Z,29.5
2017-02-11T10:54:07.816Z,29.5
2017-02-11T10:56:06.147Z,29.5
2017-02-11T10:58:06.251Z,29.7
2017-02-11T11:00:05.544Z,29.8
2017-02-11T11:02:06.132Z,29.8
2017-02-11T11:04:05.834Z,29.8
2017-02-11T11:06:05.916Z,29.7
2017-02-11T11:08:08.255Z,29.8
2017-02-11T11:10:06.009Z,29.6
2017-02-11T11:12:06.129Z,29.8
2017-02-11T11:14:05.839Z,29.9
2017-02-11T11:16:12.652Z,29.8
2017-02-11T11:18:05.868Z,29.8
2017-02-11T11:20:05.605Z,29.8
2017-02-11T11:22:05.403Z,29.8
2017-02-11T11:24:05.445Z,29.8
2017-02-11T11:26:05.852Z,29.8
2017-02-11T11:28:05.830Z,29.8
2017-02-11T11:30:08.413Z,29.9
2017-02-11T11:32:05.161Z,29.9
2017-02-11T11:34:05.912Z,29.9
2017-02-11T11:36:06.032Z,29.8
2017-02-11T11:38:05.855Z,30
2017-02-11T11:40:05.666Z,29.9
2017-02-11T11:42:05.696Z,29.9
2017-02-11T11:44:06.972Z,29.5
2017-02-11T11:46:05.190Z,28.9
2017-02-11T11:48:08.355Z,28.3
2017-02-11T11:50:05.290Z,28.4
2017-02-11T11:52:06.003Z,29.1
2017-02-11T11:54:10.770Z,30.9
2017-02-11T11:56:05.443Z,34.1
2017-02-11T11:58:07.642Z,41.9
2017-02-11T12:00:08.162Z,44.6
2017-02-11T12:02:05.837Z,45
2017-02-11T12:04:05.531Z,47.4
2017-02-11T12:06:05.552Z,48.8
2017-02-11T12:08:06.246Z,49.9
2017-02-11T12:10:05.939Z,51.7
2017-02-11T12:12:13.334Z,52.3
2017-02-11T12:14:05.011Z,51.7
2017-02-11T12:16:08.348Z,36.8
2017-02-11T12:18:10.750Z,33.2
2017-02-11T12:20:10.570Z,31.8
2017-02-11T12:22:05.599Z,31.5
2017-02-11T12:24:05.398Z,30.9
2017-02-11T12:26:07.691Z,29.7
2017-02-11T12:28:05.972Z,29.7
2017-02-11T12:30:05.568Z,29.9
2017-02-11T12:32:06.127Z,29.7
2017-02-11T12:34:05.440Z,28.9
2017-02-11T12:36:05.486Z,28.5
2017-02-11T12:38:05.269Z,28.1
2017-02-11T12:40:06.117Z,27.7
2017-02-11T12:42:06.172Z,27.8
2017-02-11T12:44:05.910Z,28.3
2017-02-11T12:46:10.228Z,27.4
2017-02-11T12:48:06.343Z,27.4
2017-02-11T12:50:05.318Z,27.5
2017-02-11T12:52:04.992Z,28
2017-02-11T12:54:06.008Z,27.8
2017-02-11T12:56:05.891Z,27.5
2017-02-11T12:58:05.631Z,27.3
2017-02-11T13:00:05.885Z,27.3
2017-02-11T13:02:06.866Z,26.9
2017-02-11T13:04:06.006Z,27.1
2017-02-11T13:06:08.652Z,27.1
2017-02-11T13:08:05.110Z,26.9
2017-02-11T13:10:11.078Z,27.2
2017-02-11T13:12:05.447Z,27.2
2017-02-11T13:14:08.843Z,27.9
2017-02-11T13:16:05.899Z,27.9
2017-02-11T13:18:08.501Z,30.9
2017-02-11T13:20:05.495Z,31
2017-02-11T13:22:05.254Z,31.8
2017-02-11T13:24:08.850Z,31.5
2017-02-11T13:26:05.532Z,31.7
2017-02-11T13:28:08.723Z,31.5
2017-02-11T13:30:13.208Z,30.6
2017-02-11T13:32:05.949Z,32.4
2017-02-11T13:34:05.198Z,32.2
2017-02-11T13:36:08.768Z,32.1
2017-02-11T13:38:05.482Z,32.1
2017-02-11T13:40:08.181Z,31.3
2017-02-11T13:42:06.000Z,31
2017-02-11T13:44:05.734Z,31.5
2017-02-11T13:46:05.513Z,32.2
2017-02-11T13:48:08.079Z,31.8
2017-02-11T13:50:05.801Z,31.7
2017-02-11T13:52:05.213Z,32.1
2017-02-11T13:54:06.041Z,32.8
2017-02-11T14:20:05.524Z,34.9
2017-02-11T14:22:05.353Z,35.2
2017-02-11T14:24:05.058Z,34.7
2017-02-11T14:26:06.117Z,34.9
2017-02-11T14:30:08.479Z,34.8
2017-02-11T14:32:05.618Z,34.6
2017-02-11T14:34:05.828Z,33.2
2017-02-11T14:36:06.702Z,33.6
2017-02-11T14:38:05.549Z,32.5
2017-02-11T14:40:05.280Z,32.9
2017-02-11T14:42:05.982Z,32.3
2017-02-11T14:44:13.641Z,32.6
2017-02-11T14:46:05.491Z,32.7
2017-02-11T14:48:07.719Z,32.8
2017-02-11T14:50:06.234Z,32.6
2017-02-11T14:52:06.348Z,32.3
2017-02-11T14:54:07.782Z,32.5
2017-02-11T14:56:05.398Z,32.5
2017-02-11T14:58:05.118Z,32.2
2017-02-11T15:00:05.968Z,32.4
2017-02-11T15:02:05.980Z,32.1
2017-02-11T15:04:05.670Z,32.1
2017-02-11T15:06:08.054Z,32.1
2017-02-11T15:08:08.637Z,32
2017-02-11T15:10:05.850Z,31.9
2017-02-11T15:12:05.653Z,32.1
2017-02-11T15:14:05.657Z,31.9
2017-02-11T15:16:10.472Z,31.4
2017-02-11T15:18:10.448Z,31.7
2017-02-11T15:20:05.518Z,31.8
2017-02-11T15:22:05.379Z,32
2017-02-11T15:24:05.226Z,31.9
2017-02-11T15:26:06.478Z,31.3
2017-02-11T15:28:07.433Z,32.1
2017-02-11T15:30:05.171Z,31.2
2017-02-11T15:32:08.541Z,31.9
2017-02-11T15:34:10.326Z,31.8
2017-02-11T15:36:07.597Z,32.1
2017-02-11T15:38:05.552Z,32
2017-02-11T15:40:05.500Z,32
2017-02-11T15:42:08.238Z,32.1
2017-02-11T15:44:11.251Z,32.2
2017-02-11T15:46:05.968Z,32.3
2017-02-11T15:48:05.667Z,32.6
2017-02-11T15:50:05.670Z,33.3
2017-02-11T15:52:05.372Z,33.3
2017-02-11T15:54:05.165Z,33.3
2017-02-11T15:56:06.317Z,33.2
2017-02-11T15:58:05.052Z,33.2
2017-02-11T16:00:05.774Z,33.3
2017-02-11T16:02:05.597Z,33.6
2017-02-11T16:04:05.284Z,33.4
2017-02-11T16:06:06.041Z,33.8
2017-02-11T16:08:06.070Z,33.9
2017-02-11T16:10:08.324Z,34.3
2017-02-11T16:12:07.860Z,34.4
2017-02-11T16:14:05.879Z,34.4
2017-02-11T16:16:08.100Z,34.9
2017-02-11T16:18:05.494Z,34.9
2017-02-11T16:20:05.813Z,35.4
2017-02-11T16:22:05.090Z,35.1
2017-02-11T16:24:05.809Z,34.8
2017-02-11T16:26:05.148Z,34.8
2017-02-11T16:28:06.209Z,34.9
2017-02-11T16:30:05.559Z,35.1
2017-02-11T16:32:05.622Z,35.2
2017-02-11T16:34:10.328Z,35.6
2017-02-11T16:36:08.056Z,35.7
2017-02-11T16:38:05.956Z,35.7
2017-02-11T16:40:10.755Z,35.7
2017-02-11T16:42:07.973Z,35.7
2017-02-11T16:44:05.547Z,35.7
2017-02-11T16:46:05.812Z,35.7
2017-02-11T16:48:05.511Z,35.7
2017-02-11T16:50:05.491Z,35.9
2017-02-11T16:52:05.245Z,35.9
2017-02-11T16:54:06.012Z,35.9
2017-02-11T16:56:09.447Z,35.9
2017-02-11T16:58:05.155Z,35.9
2017-02-11T17:00:06.039Z,35.9
2017-02-11T17:02:08.380Z,35.9
2017-02-11T17:04:08.208Z,35.9
2017-02-11T17:06:07.955Z,36.1
2017-02-11T17:08:08.414Z,35.9
2017-02-11T17:10:05.687Z,35.9
2017-02-11T17:12:05.438Z,35.3
2017-02-11T17:14:05.293Z,35.3
2017-02-11T17:16:06.139Z,35.3
2017-02-11T17:18:07.630Z,35
2017-02-11T17:20:05.990Z,35
2017-02-11T17:22:05.753Z,35
2017-02-11T17:24:05.535Z,35
2017-02-11T17:26:05.733Z,34.9
2017-02-11T17:28:06.672Z,34.8
2017-02-11T17:30:05.404Z,34.8
2017-02-11T17:32:06.072Z,34.5
2017-02-11T17:34:08.338Z,34.4
2017-02-11T17:36:05.237Z,34.4
2017-02-11T17:38:08.320Z,34.3
2017-02-11T17:40:05.176Z,34.3
2017-02-11T17:42:05.941Z,34.2
2017-02-11T17:44:06.868Z,34.2
2017-02-11T17:46:13.189Z,34.1
2017-02-11T17:48:06.030Z,33.9
2017-02-11T17:50:08.617Z,34.1
2017-02-11T17:52:05.301Z,33.9
2017-02-11T17:54:05.104Z,34.1
2017-02-11T17:56:06.431Z,34.1
2017-02-11T17:58:05.825Z,33.8
2017-02-11T18:00:20.513Z,33.7
2017-02-11T18:02:08.026Z,33.6
2017-02-11T18:04:06.092Z,33.6
2017-02-11T18:06:05.788Z,33.6
2017-02-11T18:08:05.824Z,33.6
2017-02-11T18:10:05.567Z,33.6
2017-02-11T18:12:07.800Z,33.5
2017-02-11T18:14:05.173Z,33.5
2017-02-11T18:16:05.987Z,33.2
2017-02-11T18:18:06.027Z,33.2
2017-02-11T18:20:05.778Z,33.2
2017-02-11T18:22:05.720Z,33.1
2017-02-11T18:24:05.475Z,33.1
2017-02-11T18:26:05.469Z,33
2017-02-11T18:28:05.727Z,33
2017-02-11T18:30:18.095Z,32.9
2017-02-11T18:32:05.916Z,32.9
2017-02-11T18:34:10.736Z,32.8
2017-02-11T18:36:08.315Z,32.8
2017-02-11T18:38:07.660Z,32.8
2017-02-11T18:40:05.364Z,32.8
2017-02-11T18:42:05.056Z,32.8
2017-02-11T18:44:05.605Z,32.8
2017-02-11T18:46:05.284Z,32.7
2017-02-11T18:48:11.058Z,32.7
2017-02-11T18:50:05.424Z,32.7
2017-02-11T18:52:05.522Z,32.6
2017-02-11T18:54:05.212Z,32.6
2017-02-11T18:56:07.035Z,32.5
2017-02-11T18:58:08.306Z,32.3
2017-02-11T19:00:06.003Z,32.5
2017-02-11T19:02:05.857Z,32.5
2017-02-11T19:04:05.553Z,32.4
2017-02-11T19:06:05.884Z,32.4
2017-02-11T19:08:05.520Z,32.2
2017-02-11T19:10:07.806Z,32.2
2017-02-11T19:12:05.499Z,32.1
2017-02-11T19:14:05.410Z,32.1
2017-02-11T19:16:05.098Z,32.1
2017-02-11T19:18:05.507Z,32.1
2017-02-11T19:20:05.364Z,32.1
2017-02-11T19:22:05.141Z,32
2017-02-11T19:24:06.192Z,32
2017-02-11T19:26:06.221Z,32.1
2017-02-11T19:28:05.899Z,32
2017-02-11T19:30:05.900Z,32
2017-02-11T19:32:05.719Z,32
2017-02-11T19:34:05.407Z,31.9
2017-02-11T19:36:05.128Z,32
2017-02-11T19:38:06.129Z,32
2017-02-11T19:40:06.157Z,31.9
2017-02-11T19:42:05.903Z,31.9
2017-02-11T19:44:06.062Z,31.9
2017-02-11T19:46:05.800Z,31.9
2017-02-11T19:48:05.512Z,31.9
2017-02-11T19:50:07.881Z,31.9
2017-02-11T19:52:08.159Z,31.9
2017-02-11T19:54:05.843Z,31.6
2017-02-11T19:56:05.951Z,31.9
2017-02-11T19:58:05.288Z,31.8
2017-02-11T20:00:05.991Z,31.9
2017-02-11T20:02:05.877Z,31.8
2017-02-11T20:04:05.575Z,31.8
2017-02-11T20:06:08.336Z,31.8
2017-02-11T20:08:05.442Z,31.8
2017-02-11T20:10:07.668Z,31.5
2017-02-11T20:12:06.041Z,31.8
2017-02-11T20:14:05.967Z,31.8
2017-02-11T20:16:10.767Z,31.5
2017-02-11T20:18:05.657Z,31.5
2017-02-11T20:20:08.065Z,31.5
2017-02-11T20:22:06.015Z,31.5
2017-02-11T20:24:17.050Z,31.5
2017-02-11T20:26:06.139Z,31.5
2017-02-11T20:28:05.991Z,31.5
2017-02-11T20:30:10.846Z,31.5
2017-02-11T20:32:08.576Z,31.5
2017-02-11T20:34:07.851Z,31.5
2017-02-11T20:36:05.599Z,31.5
2017-02-11T20:38:05.529Z,31.5
2017-02-11T20:40:07.768Z,31.5
2017-02-11T20:42:08.074Z,31.5
2017-02-11T20:44:05.859Z,31.5
2017-02-11T20:46:08.093Z,31.5
2017-02-11T20:48:05.844Z,31.5
2017-02-11T20:50:05.350Z,31.5
2017-02-11T20:52:05.127Z,31.5
2017-02-11T20:54:05.817Z,31.4
2017-02-11T20:56:05.600Z,31.5
2017-02-11T20:58:08.111Z,31.4
2017-02-11T21:00:06.185Z,31.4
2017-02-11T21:02:06.135Z,31.4
2017-02-11T21:04:06.041Z,31.4
2017-02-11T21:06:05.740Z,31.2
2017-02-11T21:08:05.737Z,31.4
2017-02-11T21:10:05.444Z,31.4
2017-02-11T21:12:07.752Z,31.2
2017-02-11T21:14:05.805Z,31.2
2017-02-11T21:16:05.332Z,31.2
2017-02-11T21:18:05.296Z,31.2
2017-02-11T21:20:05.175Z,31.2
2017-02-11T21:22:06.620Z,31.1
2017-02-11T21:24:05.352Z,31.1
2017-02-11T21:26:05.270Z,31.1
2017-02-11T21:28:07.906Z,31.2
2017-02-11T21:30:05.849Z,31.2
2017-02-11T21:32:05.840Z,31.2
2017-02-11T21:34:05.057Z,31.1
2017-02-11T21:36:10.839Z,31.1
2017-02-11T21:38:05.147Z,31.1
2017-02-11T21:40:06.915Z,31.1
2017-02-11T21:42:05.737Z,31.1
2017-02-11T21:44:06.152Z,31.1
2017-02-11T21:46:05.109Z,31.1
2017-02-11T21:48:08.649Z,31.1
2017-02-11T21:50:06.120Z,31.1
2017-02-11T21:52:05.023Z,31.1
2017-02-11T21:54:10.831Z,31.1
2017-02-11T21:56:08.396Z,31.1
2017-02-11T21:58:05.112Z,31.1
2017-02-11T22:00:05.784Z,31.1
2017-02-11T22:02:07.807Z,31.1
2017-02-11T22:04:05.738Z,30.9
2017-02-11T22:06:05.545Z,31.1
2017-02-11T22:08:06.212Z,30.9
2017-02-11T22:10:12.737Z,31
2017-02-11T22:12:05.469Z,30.8
2017-02-11T22:14:08.419Z,30.9
2017-02-11T22:16:05.456Z,30.9
2017-02-11T22:18:05.647Z,30.8
2017-02-11T22:20:05.725Z,30.9
2017-02-11T22:22:05.690Z,30.9
2017-02-11T22:24:07.962Z,30.9
2017-02-11T22:26:06.031Z,30.8
2017-02-11T22:28:08.354Z,30.9
2017-02-11T22:30:05.072Z,30.9
2017-02-11T22:32:06.170Z,31
2017-02-11T22:34:05.945Z,30.8
2017-02-11T22:36:06.253Z,30.9
2017-02-11T22:38:11.327Z,30.8
2017-02-11T22:40:07.674Z,29.2
2017-02-11T22:42:05.345Z,30.8
2017-02-11T22:44:10.450Z,30.8
2017-02-11T22:46:07.777Z,30.8
2017-02-11T22:48:05.757Z,30.8
2017-02-11T22:50:05.809Z,30.8
2017-02-11T22:52:06.205Z,30.8
2017-02-11T22:54:06.025Z,30.8
2017-02-11T22:56:05.828Z,30.8
2017-02-11T22:58:08.059Z,30.8
2017-02-11T23:00:05.799Z,30.8
2017-02-11T23:02:05.356Z,30.8
2017-02-11T23:04:05.103Z,30.8
2017-02-11T23:06:07.906Z,30.8
2017-02-11T23:08:06.141Z,30.8
2017-02-11T23:10:05.873Z,30.8
2017-02-11T23:12:05.881Z,30.8
2017-02-11T23:14:05.988Z,30.8
2017-02-11T23:16:05.303Z,30.8
2017-02-11T23:18:05.211Z,30.8
2017-02-11T23:20:06.262Z,30.8
2017-02-11T23:22:06.024Z,30.8
2017-02-11T23:24:05.978Z,30.8
2017-02-11T23:26:05.400Z,30.8
2017-02-11T23:28:05.359Z,30.8
2017-02-11T23:30:05.096Z,30.8
2017-02-11T23:32:05.906Z,30.8
2017-02-11T23:34:08.188Z,30.8
2017-02-11T23:36:05.448Z,30.7
2017-02-11T23:38:05.512Z,30.8
2017-02-11T23:40:08.034Z,30.8
2017-02-11T23:42:05.824Z,30.7
2017-02-11T23:44:05.747Z,30.7
2017-02-11T23:46:08.017Z,30.7
2017-02-11T23:48:05.757Z,30.5
2017-02-11T23:50:05.485Z,30.8
2017-02-11T23:52:05.837Z,30.7
2017-02-11T23:54:10.630Z,30.7
2017-02-11T23:56:08.258Z,30.7
2017-02-11T23:58:05.038Z,30.7
